LIED/DCI METAR and TAF weather

Enter ICAO airport designator
Station Type Date Time Source
LIED METAR 2022/06/27 06:55 UTC NOAA

LIED 270655Z 15006KT 9999 FEW050 30/28 Q1010


Station Type Date Time Source
LIED Decoded METAR 2022/06/27 06:55 UTC NOAA

Decimomannu, Italy (LIED) 39-21N 008-58E 28M
Jun 27, 2022 - 02:55 AM EDT / 2022.06.27 0655 UTC
Wind: from the SSE (150 degrees) at 7 MPH (6 KT):0
Visibility: greater than 7 mile(s):0
Sky conditions: mostly clear
Temperature: 86 F (30 C)
Heat index: 104.7 F (40.4 C):1
Dew Point: 82 F (28 C)
Relative Humidity: 89%
Pressure (altimeter): 29.83 in. Hg (1010 hPa)
ob: LIED 270655Z 15006KT 9999 FEW050 30/28 Q1010
cycle: 7

Station Type Date Time Source
LIED TAF 2021/01/17 03:30 UTC NOAA

TAF TAF LIED 170500Z 1703/1715 03003KT 9999 FEW020 SCT040
TEMPO 1706/1710 RA SCT020 BKN060
BECMG 1708/1710 33018KT
TEMPO 1710/1715 33025G35KT
TEMPO 1713/1715 RA

Example: see airport list